sensor_id;sensor_type;location;lat;lon;timestamp;pressure;altitude;pressure_sealevel;temperature;humidity
39793;BME280;26080;42.264;24.536;2023-04-12T00:00:19;98225.16;;;9.59;100.00
39793;BME280;26080;42.264;24.536;2023-04-12T00:02:45;98235.56;;;9.74;100.00
39793;BME280;26080;42.264;24.536;2023-04-12T00:05:10;98231.81;;;9.78;100.00
39793;BME280;26080;42.264;24.536;2023-04-12T00:07:36;98221.38;;;9.78;100.00
39793;BME280;26080;42.264;24.536;2023-04-12T00:10:06;98198.69;;;9.65;100.00
39793;BME280;26080;42.264;24.536;2023-04-12T00:12:32;98216.34;;;9.75;100.00
39793;BME280;26080;42.264;24.536;2023-04-12T00:14:58;98221.66;;;9.74;100.00
39793;BME280;26080;42.264;24.536;2023-04-12T00:17:23;98221.66;;;9.74;100.00
39793;BME280;26080;42.264;24.536;2023-04-12T00:19:48;98222.56;;;9.73;100.00
39793;BME280;26080;42.264;24.536;2023-04-12T00:22:15;98228.06;;;9.68;100.00
39793;BME280;26080;42.264;24.536;2023-04-12T00:24:40;98195.41;;;9.47;100.00
39793;BME280;26080;42.264;24.536;2023-04-12T00:27:06;98227.13;;;9.55;100.00
39793;BME280;26080;42.264;24.536;2023-04-12T00:29:32;98226.69;;;9.48;100.00
39793;BME280;26080;42.264;24.536;2023-04-12T00:31:58;98217.50;;;9.41;100.00
39793;BME280;26080;42.264;24.536;2023-04-12T00:34:26;98218.72;;;9.36;100.00
39793;BME280;26080;42.264;24.536;2023-04-12T00:36:52;98213.69;;;9.33;100.00
39793;BME280;26080;42.264;24.536;2023-04-12T00:39:18;98218.72;;;9.36;100.00
39793;BME280;26080;42.264;24.536;2023-04-12T00:41:43;98221.34;;;9.36;100.00
39793;BME280;26080;42.264;24.536;2023-04-12T00:44:08;98211.81;;;9.35;100.00
39793;BME280;26080;42.264;24.536;2023-04-12T00:46:34;98195.47;;;9.31;100.00
39793;BME280;26080;42.264;24.536;2023-04-12T00:49:01;98199.50;;;9.37;100.00
39793;BME280;26080;42.264;24.536;2023-04-12T00:51:27;98196.59;;;9.41;100.00
39793;BME280;26080;42.264;24.536;2023-04-12T00:53:58;98186.81;;;9.45;100.00
39793;BME280;26080;42.264;24.536;2023-04-12T00:56:27;98193.34;;;9.52;100.00
39793;BME280;26080;42.264;24.536;2023-04-12T00:58:53;98189.59;;;9.56;100.00
39793;BME280;26080;42.264;24.536;2023-04-12T01:01:19;98198.03;;;9.61;100.00
39793;BME280;26080;42.264;24.536;2023-04-12T01:03:47;98190.09;;;9.63;100.00
39793;BME280;26080;42.264;24.536;2023-04-12T01:09:23;98175.59;;;9.57;100.00
39793;BME280;26080;42.264;24.536;2023-04-12T01:16:55;98162.38;;;9.46;100.00
39793;BME280;26080;42.264;24.536;2023-04-12T01:27:38;98154.88;;;9.40;100.00
39793;BME280;26080;42.264;24.536;2023-04-12T01:30:07;98150.59;;;9.39;100.00
39793;BME280;26080;42.264;24.536;2023-04-12T01:32:37;98117.19;;;9.30;100.00
39793;BME280;26080;42.264;24.536;2023-04-12T01:35:05;98139.59;;;9.48;100.00
39793;BME280;26080;42.264;24.536;2023-04-12T01:37:33;98144.81;;;9.48;100.00
39793;BME280;26080;42.264;24.536;2023-04-12T01:39:59;98141.63;;;9.57;100.00
39793;BME280;26080;42.264;24.536;2023-04-12T01:42:25;98147.44;;;9.62;100.00
39793;BME280;26080;42.264;24.536;2023-04-12T01:44:50;98122.97;;;9.49;100.00
39793;BME280;26080;42.264;24.536;2023-04-12T01:47:16;98155.63;;;9.70;100.00
39793;BME280;26080;42.264;24.536;2023-04-12T01:49:51;98156.19;;;9.75;100.00
39793;BME280;26080;42.264;24.536;2023-04-12T01:52:19;98163.94;;;9.77;100.00
39793;BME280;26080;42.264;24.536;2023-04-12T01:54:49;98162.91;;;9.79;100.00
39793;BME280;26080;42.264;24.536;2023-04-12T01:57:17;98132.59;;;9.63;100.00
39793;BME280;26080;42.264;24.536;2023-04-12T01:59:44;98161.88;;;9.82;100.00
39793;BME280;26080;42.264;24.536;2023-04-12T02:02:12;98174.31;;;9.78;100.00
39793;BME280;26080;42.264;24.536;2023-04-12T02:04:38;98168.44;;;9.75;100.00
39793;BME280;26080;42.264;24.536;2023-04-12T02:07:05;98168.44;;;9.75;100.00
39793;BME280;26080;42.264;24.536;2023-04-12T02:09:36;98172.63;;;9.77;100.00
39793;BME280;26080;42.264;24.536;2023-04-12T02:12:02;98179.63;;;9.77;100.00
39793;BME280;26080;42.264;24.536;2023-04-12T02:14:28;98168.03;;;9.81;100.00
39793;BME280;26080;42.264;24.536;2023-04-12T02:16:56;98158.63;;;9.78;100.00
39793;BME280;26080;42.264;24.536;2023-04-12T02:19:22;98177.28;;;9.72;100.00
39793;BME280;26080;42.264;24.536;2023-04-12T02:21:49;98143.31;;;9.58;100.00
39793;BME280;26080;42.264;24.536;2023-04-12T02:24:14;98169.81;;;9.66;100.00
39793;BME280;26080;42.264;24.536;2023-04-12T02:26:40;98174.94;;;9.68;100.00
39793;BME280;26080;42.264;24.536;2023-04-12T02:29:07;98150.59;;;9.53;100.00
39793;BME280;26080;42.264;24.536;2023-04-12T02:31:36;98167.94;;;9.68;100.00
39793;BME280;26080;42.264;24.536;2023-04-12T02:34:04;98160.00;;;9.70;100.00
39793;BME280;26080;42.264;24.536;2023-04-12T02:36:29;98165.13;;;9.71;100.00
39793;BME280;26080;42.264;24.536;2023-04-12T02:38:55;98169.44;;;9.72;100.00
39793;BME280;26080;42.264;24.536;2023-04-12T02:41:21;98171.31;;;9.70;100.00
39793;BME280;26080;42.264;24.536;2023-04-12T02:43:46;98165.03;;;9.73;100.00
39793;BME280;26080;42.264;24.536;2023-04-12T02:46:19;98167.75;;;9.71;100.00
39793;BME280;26080;42.264;24.536;2023-04-12T02:48:46;98157.13;;;9.74;100.00
39793;BME280;26080;42.264;24.536;2023-04-12T02:51:11;98158.31;;;9.83;100.00
39793;BME280;26080;42.264;24.536;2023-04-12T02:53:37;98149.63;;;9.83;100.00
39793;BME280;26080;42.264;24.536;2023-04-12T02:56:03;98142.34;;;9.88;100.00
39793;BME280;26080;42.264;24.536;2023-04-12T02:58:30;98127.13;;;9.80;100.00
39793;BME280;26080;42.264;24.536;2023-04-12T03:00:55;98151.28;;;9.98;100.00
39793;BME280;26080;42.264;24.536;2023-04-12T03:03:24;98152.03;;;10.00;100.00
39793;BME280;26080;42.264;24.536;2023-04-12T03:05:51;98138.56;;;10.06;100.00
39793;BME280;26080;42.264;24.536;2023-04-12T03:08:17;98139.50;;;10.05;100.00
39793;BME280;26080;42.264;24.536;2023-04-12T03:10:43;98143.06;;;10.04;100.00
39793;BME280;26080;42.264;24.536;2023-04-12T03:13:09;98142.66;;;10.10;100.00
39793;BME280;26080;42.264;24.536;2023-04-12T03:15:35;98151.44;;;10.09;100.00
39793;BME280;26080;42.264;24.536;2023-04-12T03:18:01;98136.53;;;9.97;100.00
39793;BME280;26080;42.264;24.536;2023-04-12T03:20:26;98144.56;;;9.94;100.00
39793;BME280;26080;42.264;24.536;2023-04-12T03:22:52;98168.56;;;10.00;100.00
39793;BME280;26080;42.264;24.536;2023-04-12T03:25:18;98171.28;;;9.99;100.00
39793;BME280;26080;42.264;24.536;2023-04-12T03:27:44;98165.19;;;9.98;100.00
39793;BME280;26080;42.264;24.536;2023-04-12T03:30:10;98165.31;;;9.97;100.00
39793;BME280;26080;42.264;24.536;2023-04-12T03:32:39;98172.41;;;9.95;100.00
39793;BME280;26080;42.264;24.536;2023-04-12T03:35:07;98166.25;;;9.96;100.00
39793;BME280;26080;42.264;24.536;2023-04-12T03:37:33;98180.91;;;9.98;100.00
39793;BME280;26080;42.264;24.536;2023-04-12T03:39:58;98177.44;;;9.98;100.00
39793;BME280;26080;42.264;24.536;2023-04-12T03:42:24;98171.47;;;9.96;100.00
39793;BME280;26080;42.264;24.536;2023-04-12T03:44:50;98166.44;;;9.93;100.00
39793;BME280;26080;42.264;24.536;2023-04-12T03:47:17;98156.00;;;9.78;100.00
39793;BME280;26080;42.264;24.536;2023-04-12T03:49:42;98158.63;;;9.78;100.00
39793;BME280;26080;42.264;24.536;2023-04-12T03:52:08;98176.53;;;9.85;100.00
39793;BME280;26080;42.264;24.536;2023-04-12T03:54:33;98179.88;;;9.87;100.00
39793;BME280;26080;42.264;24.536;2023-04-12T03:56:59;98179.13;;;9.85;100.00
39793;BME280;26080;42.264;24.536;2023-04-12T03:59:26;98181.00;;;9.83;100.00
39793;BME280;26080;42.264;24.536;2023-04-12T04:01:52;98188.00;;;9.82;100.00
39793;BME280;26080;42.264;24.536;2023-04-12T04:04:18;98181.00;;;9.83;100.00
39793;BME280;26080;42.264;24.536;2023-04-12T04:06:43;98191.88;;;9.76;100.00
39793;BME280;26080;42.264;24.536;2023-04-12T04:09:10;98178.88;;;9.75;100.00
39793;BME280;26080;42.264;24.536;2023-04-12T04:11:36;98180.47;;;9.77;100.00
39793;BME280;26080;42.264;24.536;2023-04-12T04:14:01;98185.59;;;9.79;100.00
39793;BME280;26080;42.264;24.536;2023-04-12T04:16:27;98191.47;;;9.83;100.00
39793;BME280;26080;42.264;24.536;2023-04-12T04:18:55;98195.50;;;9.88;100.00
39793;BME280;26080;42.264;24.536;2023-04-12T04:21:20;98196.97;;;9.92;100.00
39793;BME280;26080;42.264;24.536;2023-04-12T04:23:46;98196.78;;;9.95;100.00
39793;BME280;26080;42.264;24.536;2023-04-12T04:26:12;98206.09;;;9.99;100.00
39793;BME280;26080;42.264;24.536;2023-04-12T04:28:41;98196.22;;;10.04;100.00
39793;BME280;26080;42.264;24.536;2023-04-12T04:31:10;98204.81;;;10.06;100.00
39793;BME280;26080;42.264;24.536;2023-04-12T04:33:36;98193.09;;;10.12;100.00
39793;BME280;26080;42.264;24.536;2023-04-12T04:36:03;98196.28;;;10.17;100.00
39793;BME280;26080;42.264;24.536;2023-04-12T04:38:29;98200.13;;;10.26;100.00
39793;BME280;26080;42.264;24.536;2023-04-12T04:40:57;98199.75;;;10.32;100.00
39793;BME280;26080;42.264;24.536;2023-04-12T04:43:24;98200.06;;;10.40;100.00
39793;BME280;26080;42.264;24.536;2023-04-12T04:45:53;98202.41;;;10.45;100.00
39793;BME280;26080;42.264;24.536;2023-04-12T04:48:19;98196.88;;;10.49;100.00
39793;BME280;26080;42.264;24.536;2023-04-12T04:50:45;98203.41;;;10.56;100.00
39793;BME280;26080;42.264;24.536;2023-04-12T04:53:11;98184.09;;;10.45;100.00
39793;BME280;26080;42.264;24.536;2023-04-12T04:55:37;98204.78;;;10.62;100.00
39793;BME280;26080;42.264;24.536;2023-04-12T04:58:04;98216.00;;;10.64;100.00
39793;BME280;26080;42.264;24.536;2023-04-12T05:00:33;98207.00;;;10.68;100.00
39793;BME280;26080;42.264;24.536;2023-04-12T05:03:00;98208.28;;;10.75;100.00
39793;BME280;26080;42.264;24.536;2023-04-12T05:05:29;98204.94;;;10.73;100.00
39793;BME280;26080;42.264;24.536;2023-04-12T05:07:55;98214.78;;;10.82;100.00
39793;BME280;26080;42.264;24.536;2023-04-12T05:10:22;98215.34;;;10.87;100.00
39793;BME280;26080;42.264;24.536;2023-04-12T05:12:47;98219.44;;;10.91;100.00
39793;BME280;26080;42.264;24.536;2023-04-12T05:15:13;98185.97;;;10.70;100.00
39793;BME280;26080;42.264;24.536;2023-04-12T05:17:39;98211.06;;;10.86;100.00
39793;BME280;26080;42.264;24.536;2023-04-12T05:20:05;98227.09;;;10.94;100.00
39793;BME280;26080;42.264;24.536;2023-04-12T05:22:33;98226.69;;;11.01;100.00
39793;BME280;26080;42.264;24.536;2023-04-12T05:24:59;98213.88;;;10.96;100.00
39793;BME280;26080;42.264;24.536;2023-04-12T05:27:25;98243.78;;;11.06;100.00
39793;BME280;26080;42.264;24.536;2023-04-12T05:29:52;98240.31;;;11.06;100.00
39793;BME280;26080;42.264;24.536;2023-04-12T05:32:18;98242.09;;;11.05;100.00
39793;BME280;26080;42.264;24.536;2023-04-12T05:34:43;98242.41;;;11.01;100.00
39793;BME280;26080;42.264;24.536;2023-04-12T05:37:08;98243.16;;;11.03;100.00
39793;BME280;26080;42.264;24.536;2023-04-12T05:39:35;98249.03;;;11.06;100.00
39793;BME280;26080;42.264;24.536;2023-04-12T05:42:01;98244.41;;;11.10;100.00
39793;BME280;26080;42.264;24.536;2023-04-12T05:44:26;98253.88;;;11.12;100.00
39793;BME280;26080;42.264;24.536;2023-04-12T05:46:51;98243.91;;;11.17;100.00
39793;BME280;26080;42.264;24.536;2023-04-12T05:49:17;98246.78;;;11.27;100.00
39793;BME280;26080;42.264;24.536;2023-04-12T05:51:42;98246.13;;;11.36;100.00
39793;BME280;26080;42.264;24.536;2023-04-12T05:54:07;98242.38;;;11.40;100.00
39793;BME280;26080;42.264;24.536;2023-04-12T05:56:35;98234.41;;;11.42;100.00
39793;BME280;26080;42.264;24.536;2023-04-12T05:59:00;98249.13;;;11.70;100.00
39793;BME280;26080;42.264;24.536;2023-04-12T06:01:27;98248.41;;;11.80;100.00
39793;BME280;26080;42.264;24.536;2023-04-12T06:04:02;98247.66;;;11.91;100.00
39793;BME280;26080;42.264;24.536;2023-04-12T06:06:28;98237.56;;;12.10;100.00
39793;BME280;26080;42.264;24.536;2023-04-12T06:08:55;98242.16;;;12.20;99.66
39793;BME280;26080;42.264;24.536;2023-04-12T06:11:22;98231.81;;;12.42;97.10
39793;BME280;26080;42.264;24.536;2023-04-12T06:13:48;98223.13;;;12.65;96.49
39793;BME280;26080;42.264;24.536;2023-04-12T06:16:14;98214.22;;;12.79;92.87
39793;BME280;26080;42.264;24.536;2023-04-12T06:18:39;98204.44;;;12.81;92.37
39793;BME280;26080;42.264;24.536;2023-04-12T06:21:05;98222.66;;;12.95;91.16
39793;BME280;26080;42.264;24.536;2023-04-12T06:23:31;98225.69;;;13.02;90.86
39793;BME280;26080;42.264;24.536;2023-04-12T06:25:56;98229.47;;;12.98;91.62
39793;BME280;26080;42.264;24.536;2023-04-12T06:28:21;98233.34;;;13.05;92.80
39793;BME280;26080;42.264;24.536;2023-04-12T06:30:47;98237.97;;;13.01;91.03
39793;BME280;26080;42.264;24.536;2023-04-12T06:33:12;98234.00;;;12.96;88.47
39793;BME280;26080;42.264;24.536;2023-04-12T06:35:38;98232.09;;;12.98;87.55
39793;BME280;26080;42.264;24.536;2023-04-12T06:38:03;98236.34;;;13.12;85.71
39793;BME280;26080;42.264;24.536;2023-04-12T06:40:29;98243.97;;;13.15;81.70
39793;BME280;26080;42.264;24.536;2023-04-12T06:42:54;98229.78;;;13.17;78.78
39793;BME280;26080;42.264;24.536;2023-04-12T06:45:24;98244.41;;;13.21;77.96
39793;BME280;26080;42.264;24.536;2023-04-12T06:47:49;98235.34;;;13.25;77.90
39793;BME280;26080;42.264;24.536;2023-04-12T06:50:15;98244.22;;;13.36;77.69
39793;BME280;26080;42.264;24.536;2023-04-12T06:52:40;98238.50;;;13.53;77.59
39793;BME280;26080;42.264;24.536;2023-04-12T06:55:06;98232.53;;;13.51;72.53
39793;BME280;26080;42.264;24.536;2023-04-12T06:57:31;98220.09;;;13.53;71.43
39793;BME280;26080;42.264;24.536;2023-04-12T06:59:57;98225.59;;;13.50;69.94
39793;BME280;26080;42.264;24.536;2023-04-12T07:02:22;98239.72;;;13.49;67.56
39793;BME280;26080;42.264;24.536;2023-04-12T07:04:52;98221.78;;;13.54;67.57
39793;BME280;26080;42.264;24.536;2023-04-12T07:07:18;98230.63;;;13.53;69.89
39793;BME280;26080;42.264;24.536;2023-04-12T07:09:45;98237.81;;;13.62;65.23
39793;BME280;26080;42.264;24.536;2023-04-12T07:12:11;98238.78;;;13.83;66.99
39793;BME280;26080;42.264;24.536;2023-04-12T07:14:37;98228.50;;;13.91;66.47
39793;BME280;26080;42.264;24.536;2023-04-12T07:17:02;98233.91;;;13.90;65.18
39793;BME280;26080;42.264;24.536;2023-04-12T07:19:28;98233.31;;;13.86;65.00
39793;BME280;26080;42.264;24.536;2023-04-12T07:21:55;98232.09;;;14.02;65.54
39793;BME280;26080;42.264;24.536;2023-04-12T07:24:20;98232.56;;;14.07;62.78
39793;BME280;26080;42.264;24.536;2023-04-12T07:26:46;98222.03;;;14.18;61.34
39793;BME280;26080;42.264;24.536;2023-04-12T07:29:11;98217.38;;;14.21;58.82
39793;BME280;26080;42.264;24.536;2023-04-12T07:31:37;98212.22;;;14.20;60.64
39793;BME280;26080;42.264;24.536;2023-04-12T07:34:02;98206.25;;;14.07;60.38
39793;BME280;26080;42.264;24.536;2023-04-12T07:36:28;98197.63;;;14.27;59.48
39793;BME280;26080;42.264;24.536;2023-04-12T07:38:53;98201.44;;;14.34;59.45
39793;BME280;26080;42.264;24.536;2023-04-12T07:41:20;98213.06;;;14.54;59.05
39793;BME280;26080;42.264;24.536;2023-04-12T07:43:47;98192.06;;;14.52;59.76
39793;BME280;26080;42.264;24.536;2023-04-12T07:46:12;98213.25;;;14.62;61.09
39793;BME280;26080;42.264;24.536;2023-04-12T07:48:37;98153.91;;;14.24;58.51
39793;BME280;26080;42.264;24.536;2023-04-12T07:51:03;98198.56;;;14.48;61.41
39793;BME280;26080;42.264;24.536;2023-04-12T07:53:29;98194.63;;;14.75;62.00
39793;BME280;26080;42.264;24.536;2023-04-12T07:55:55;98186.44;;;14.89;59.04
39793;BME280;26080;42.264;24.536;2023-04-12T07:58:22;98200.59;;;14.88;58.51
39793;BME280;26080;42.264;24.536;2023-04-12T08:00:48;98195.53;;;14.96;56.87
39793;BME280;26080;42.264;24.536;2023-04-12T08:03:16;98204.41;;;14.95;54.72
39793;BME280;26080;42.264;24.536;2023-04-12T08:05:42;98177.97;;;15.06;62.03
39793;BME280;26080;42.264;24.536;2023-04-12T08:08:09;98197.66;;;15.23;57.75
39793;BME280;26080;42.264;24.536;2023-04-12T08:10:37;98187.50;;;15.19;56.73
39793;BME280;26080;42.264;24.536;2023-04-12T08:13:04;98191.97;;;15.49;59.32
39793;BME280;26080;42.264;24.536;2023-04-12T08:15:30;98185.97;;;15.37;60.20
39793;BME280;26080;42.264;24.536;2023-04-12T08:17:55;98169.72;;;15.21;60.80
39793;BME280;26080;42.264;24.536;2023-04-12T08:20:20;98179.50;;;15.30;61.53
39793;BME280;26080;42.264;24.536;2023-04-12T08:22:47;98161.25;;;15.38;59.49
39793;BME280;26080;42.264;24.536;2023-04-12T08:25:13;98157.16;;;15.24;61.69
39793;BME280;26080;42.264;24.536;2023-04-12T08:27:41;98160.78;;;15.33;59.11
39793;BME280;26080;42.264;24.536;2023-04-12T08:30:07;98158.31;;;15.10;59.60
39793;BME280;26080;42.264;24.536;2023-04-12T08:32:34;98157.56;;;14.88;58.84
39793;BME280;26080;42.264;24.536;2023-04-12T08:35:00;98160.06;;;14.89;60.81
39793;BME280;26080;42.264;24.536;2023-04-12T08:37:26;98171.44;;;14.69;67.58
39793;BME280;26080;42.264;24.536;2023-04-12T08:39:51;98158.97;;;14.71;66.77
39793;BME280;26080;42.264;24.536;2023-04-12T08:42:17;98170.63;;;14.57;68.48
39793;BME280;26080;42.264;24.536;2023-04-12T08:44:43;98166.22;;;14.35;69.20
39793;BME280;26080;42.264;24.536;2023-04-12T08:47:10;98170.53;;;14.25;69.57
39793;BME280;26080;42.264;24.536;2023-04-12T08:49:36;98155.69;;;14.35;69.32
39793;BME280;26080;42.264;24.536;2023-04-12T08:52:08;98153.53;;;14.40;68.29
39793;BME280;26080;42.264;24.536;2023-04-12T08:54:34;98174.41;;;14.21;68.16
39793;BME280;26080;42.264;24.536;2023-04-12T08:57:02;98155.97;;;14.21;67.81
39793;BME280;26080;42.264;24.536;2023-04-12T08:59:29;98154.53;;;14.28;68.59
39793;BME280;26080;42.264;24.536;2023-04-12T09:01:56;98152.84;;;14.27;68.37
39793;BME280;26080;42.264;24.536;2023-04-12T09:04:22;98154.66;;;14.15;68.16
39793;BME280;26080;42.264;24.536;2023-04-12T09:06:48;98150.25;;;14.16;67.12
39793;BME280;26080;42.264;24.536;2023-04-12T09:09:14;98138.03;;;14.15;66.57
39793;BME280;26080;42.264;24.536;2023-04-12T09:11:40;98129.44;;;14.13;66.75
39793;BME280;26080;42.264;24.536;2023-04-12T09:14:22;98127.19;;;14.40;67.07
39793;BME280;26080;42.264;24.536;2023-04-12T09:16:49;98109.53;;;14.63;67.15
39793;BME280;26080;42.264;24.536;2023-04-12T09:19:14;98086.31;;;14.78;64.35
39793;BME280;26080;42.264;24.536;2023-04-12T09:21:55;98112.56;;;15.00;62.36
39793;BME280;26080;42.264;24.536;2023-04-12T09:24:21;98100.50;;;14.98;58.36
39793;BME280;26080;42.264;24.536;2023-04-12T09:27:03;98092.75;;;15.06;59.69
39793;BME280;26080;42.264;24.536;2023-04-12T09:29:30;98109.06;;;15.21;57.73
39793;BME280;26080;42.264;24.536;2023-04-12T09:32:02;98109.66;;;15.24;58.77
39793;BME280;26080;42.264;24.536;2023-04-12T09:34:29;98109.53;;;15.56;55.50
39793;BME280;26080;42.264;24.536;2023-04-12T09:36:55;98098.66;;;15.70;54.25
39793;BME280;26080;42.264;24.536;2023-04-12T09:39:33;98085.53;;;15.59;54.74
39793;BME280;26080;42.264;24.536;2023-04-12T09:42:07;98091.97;;;15.66;54.29
39793;BME280;26080;42.264;24.536;2023-04-12T09:44:33;98093.97;;;15.84;49.28
39793;BME280;26080;42.264;24.536;2023-04-12T09:46:59;98072.31;;;15.90;49.12
39793;BME280;26080;42.264;24.536;2023-04-12T09:49:37;98076.78;;;16.09;49.94
39793;BME280;26080;42.264;24.536;2023-04-12T09:52:05;98072.09;;;16.22;49.88
39793;BME280;26080;42.264;24.536;2023-04-12T09:54:41;98082.38;;;16.25;51.58
39793;BME280;26080;42.264;24.536;2023-04-12T09:57:07;98063.72;;;16.07;50.93
39793;BME280;26080;42.264;24.536;2023-04-12T09:59:37;98063.91;;;16.35;51.14
39793;BME280;26080;42.264;24.536;2023-04-12T10:02:13;98052.63;;;16.33;50.41
39793;BME280;26080;42.264;24.536;2023-04-12T10:04:41;98055.41;;;16.50;51.30
39793;BME280;26080;42.264;24.536;2023-04-12T10:07:07;98045.09;;;16.28;48.44
39793;BME280;26080;42.264;24.536;2023-04-12T10:09:38;98043.44;;;16.37;49.24
39793;BME280;26080;42.264;24.536;2023-04-12T10:12:05;98052.91;;;16.39;47.60
39793;BME280;26080;42.264;24.536;2023-04-12T10:14:31;98049.44;;;16.48;48.51
39793;BME280;26080;42.264;24.536;2023-04-12T10:16:58;98042.34;;;16.20;47.98
39793;BME280;26080;42.264;24.536;2023-04-12T10:19:29;98051.50;;;16.64;47.58
39793;BME280;26080;42.264;24.536;2023-04-12T10:21:56;98056.25;;;16.70;48.10
39793;BME280;26080;42.264;24.536;2023-04-12T10:24:26;98052.38;;;16.74;44.66
39793;BME280;26080;42.264;24.536;2023-04-12T10:26:53;98058.44;;;16.65;44.65
39793;BME280;26080;42.264;24.536;2023-04-12T10:29:32;98041.50;;;16.68;46.02
39793;BME280;26080;42.264;24.536;2023-04-12T10:32:31;98059.56;;;16.82;41.45
39793;BME280;26080;42.264;24.536;2023-04-12T10:34:59;98040.97;;;16.45;42.31
39793;BME280;26080;42.264;24.536;2023-04-12T10:40:30;98047.88;;;16.65;42.74
39793;BME280;26080;42.264;24.536;2023-04-12T10:45:43;98080.78;;;15.53;49.20
39793;BME280;26080;42.264;24.536;2023-04-12T10:53:43;98079.59;;;14.85;54.64
39793;BME280;26080;42.264;24.536;2023-04-12T10:58:57;98066.03;;;14.69;56.47
39793;BME280;26080;42.264;24.536;2023-04-12T11:01:23;98075.88;;;14.67;56.88
39793;BME280;26080;42.264;24.536;2023-04-12T11:09:05;98057.16;;;15.82;47.40
39793;BME280;26080;42.264;24.536;2023-04-12T11:11:35;98052.91;;;16.20;48.04
39793;BME280;26080;42.264;24.536;2023-04-12T11:14:00;98051.81;;;16.32;46.66
39793;BME280;26080;42.264;24.536;2023-04-12T11:16:26;98039.13;;;16.55;45.23
39793;BME280;26080;42.264;24.536;2023-04-12T11:18:52;98042.03;;;16.71;44.17
39793;BME280;26080;42.264;24.536;2023-04-12T11:21:18;98012.16;;;16.51;42.53
39793;BME280;26080;42.264;24.536;2023-04-12T11:23:44;98034.78;;;16.83;42.48
39793;BME280;26080;42.264;24.536;2023-04-12T11:26:10;98016.03;;;16.76;40.88
39793;BME280;26080;42.264;24.536;2023-04-12T11:28:36;98006.31;;;16.48;40.20
39793;BME280;26080;42.264;24.536;2023-04-12T11:31:02;98035.38;;;16.28;41.77
39793;BME280;26080;42.264;24.536;2023-04-12T11:36:05;98034.25;;;15.92;40.94
39793;BME280;26080;42.264;24.536;2023-04-12T11:38:32;98034.78;;;15.77;40.72
39793;BME280;26080;42.264;24.536;2023-04-12T11:40:58;98034.91;;;15.85;41.97
39793;BME280;26080;42.264;24.536;2023-04-12T11:43:24;98029.06;;;15.72;42.64
39793;BME280;26080;42.264;24.536;2023-04-12T11:45:55;98035.84;;;15.74;43.32
39793;BME280;26080;42.264;24.536;2023-04-12T11:48:23;98017.31;;;16.05;43.01
39793;BME280;26080;42.264;24.536;2023-04-12T11:50:48;98034.25;;;16.41;43.36
39793;BME280;26080;42.264;24.536;2023-04-12T11:53:14;98011.84;;;16.64;43.22
39793;BME280;26080;42.264;24.536;2023-04-12T11:55:49;98023.84;;;16.68;40.62
39793;BME280;26080;42.264;24.536;2023-04-12T11:58:16;98016.97;;;16.85;37.72
39793;BME280;26080;42.264;24.536;2023-04-12T12:00:43;98033.25;;;17.00;38.62
39793;BME280;26080;42.264;24.536;2023-04-12T12:03:10;98023.75;;;16.97;38.02
39793;BME280;26080;42.264;24.536;2023-04-12T12:05:40;97991.03;;;16.98;39.15
39793;BME280;26080;42.264;24.536;2023-04-12T12:08:07;98012.25;;;17.53;38.43
39793;BME280;26080;42.264;24.536;2023-04-12T12:10:35;97990.72;;;17.66;35.90
39793;BME280;26080;42.264;24.536;2023-04-12T12:13:01;98011.22;;;17.91;36.48
39793;BME280;26080;42.264;24.536;2023-04-12T12:15:30;97998.59;;;17.30;36.77
39793;BME280;26080;42.264;24.536;2023-04-12T12:17:55;98018.56;;;17.15;36.49
39793;BME280;26080;42.264;24.536;2023-04-12T12:20:21;98016.31;;;17.20;34.92
39793;BME280;26080;42.264;24.536;2023-04-12T12:22:49;98024.09;;;17.59;36.50
39793;BME280;26080;42.264;24.536;2023-04-12T12:25:18;98027.56;;;17.59;34.12
39793;BME280;26080;42.264;24.536;2023-04-12T12:27:44;98018.38;;;17.54;34.93
39793;BME280;26080;42.264;24.536;2023-04-12T12:30:16;98029.22;;;17.70;33.04
39793;BME280;26080;42.264;24.536;2023-04-12T12:32:42;98017.88;;;17.68;32.62
39793;BME280;26080;42.264;24.536;2023-04-12T12:35:10;98014.00;;;17.44;32.17
39793;BME280;26080;42.264;24.536;2023-04-12T12:37:36;98017.63;;;17.43;32.01
39793;BME280;26080;42.264;24.536;2023-04-12T12:40:11;98012.50;;;17.60;30.66
39793;BME280;26080;42.264;24.536;2023-04-12T12:42:53;98010.75;;;17.78;31.45
39793;BME280;26080;42.264;24.536;2023-04-12T12:45:21;97992.47;;;18.02;32.96
39793;BME280;26080;42.264;24.536;2023-04-12T12:47:52;97991.59;;;18.12;34.48
39793;BME280;26080;42.264;24.536;2023-04-12T12:50:21;98005.09;;;18.09;30.68
39793;BME280;26080;42.264;24.536;2023-04-12T12:52:47;97989.97;;;18.19;31.42
39793;BME280;26080;42.264;24.536;2023-04-12T12:55:14;97989.22;;;18.09;30.62
39793;BME280;26080;42.264;24.536;2023-04-12T12:57:41;97996.41;;;18.34;30.48
39793;BME280;26080;42.264;24.536;2023-04-12T13:00:07;98007.25;;;18.23;29.48
39793;BME280;26080;42.264;24.536;2023-04-12T13:02:34;98005.09;;;18.09;30.01
39793;BME280;26080;42.264;24.536;2023-04-12T13:05:02;98007.69;;;18.00;30.87
39793;BME280;26080;42.264;24.536;2023-04-12T13:07:27;98006.47;;;17.95;31.01
39793;BME280;26080;42.264;24.536;2023-04-12T13:09:52;97997.69;;;17.94;30.59
39793;BME280;26080;42.264;24.536;2023-04-12T13:12:18;98000.56;;;17.83;28.02
39793;BME280;26080;42.264;24.536;2023-04-12T13:14:46;97989.97;;;17.83;29.44
39793;BME280;26080;42.264;24.536;2023-04-12T13:17:12;97998.28;;;17.88;29.99
39793;BME280;26080;42.264;24.536;2023-04-12T13:19:37;98011.22;;;17.64;29.95
39793;BME280;26080;42.264;24.536;2023-04-12T13:22:02;97997.81;;;17.47;30.16
39793;BME280;26080;42.264;24.536;2023-04-12T13:24:28;98010.84;;;17.31;28.70